createdAt,value
2022-11-26T00:01:15.021Z,57.47
2022-11-26T00:03:42.150Z,50.53
2022-11-26T00:06:30.374Z,54.77
2022-11-26T00:08:56.942Z,49.07
2022-11-26T00:11:23.387Z,59.90
2022-11-26T00:13:49.920Z,50.57
2022-11-26T00:16:16.543Z,58.27
2022-11-26T00:18:43.317Z,51.57
2022-11-26T00:21:18.998Z,52.77
2022-11-26T00:23:45.679Z,57.47
2022-11-26T00:26:16.527Z,70.70
2022-11-26T00:28:50.064Z,56.73
2022-11-26T00:31:16.641Z,58.20
2022-11-26T00:33:43.313Z,61.63
2022-11-26T00:36:17.505Z,55.80
2022-11-26T00:38:45.394Z,58.27
2022-11-26T00:41:16.044Z,61.80
2022-11-26T00:43:42.535Z,50.57
2022-11-26T00:46:13.503Z,52.43
2022-11-26T00:48:40.543Z,60.93
2022-11-26T00:51:12.084Z,54.77
2022-11-26T00:53:38.638Z,60.37
2022-11-26T00:56:05.371Z,52.63
2022-11-26T00:58:31.947Z,50.53
2022-11-26T01:00:59.718Z,51.57
2022-11-26T01:03:26.918Z,47.67
2022-11-26T01:05:55.575Z,50.90
2022-11-26T01:08:31.961Z,47.00
2022-11-26T01:11:00.015Z,45.20
2022-11-26T01:13:27.192Z,45.63
2022-11-26T01:15:55.821Z,47.47
2022-11-26T01:18:22.644Z,47.27
2022-11-26T01:20:49.708Z,51.10
2022-11-26T01:23:18.294Z,50.03
2022-11-26T01:25:45.388Z,47.13
2022-11-26T01:28:13.888Z,55.40
2022-11-26T01:30:40.954Z,47.83
2022-11-26T01:33:07.722Z,54.57
2022-11-26T01:35:35.651Z,53.57
2022-11-26T01:38:02.501Z,52.63
2022-11-26T01:40:28.839Z,47.80
2022-11-26T01:43:36.864Z,53.20
2022-11-26T01:46:03.572Z,59.10
2022-11-26T01:48:33.930Z,63.27
2022-11-26T01:51:05.523Z,48.27
2022-11-26T01:53:52.787Z,51.50
2022-11-26T01:56:32.636Z,51.40
2022-11-26T01:59:25.135Z,57.53
2022-11-26T02:01:53.199Z,56.57
2022-11-26T02:04:32.136Z,58.20
2022-11-26T02:06:59.639Z,58.13
2022-11-26T02:09:27.975Z,47.47
2022-11-26T02:11:54.609Z,46.03
2022-11-26T02:14:24.135Z,53.97
2022-11-26T02:17:10.498Z,53.67
2022-11-26T02:20:01.506Z,47.80
2022-11-26T02:22:51.795Z,48.83
2022-11-26T02:25:54.241Z,65.27
2022-11-26T02:28:32.329Z,51.03
2022-11-26T02:31:07.395Z,47.30
2022-11-26T02:33:42.775Z,46.53
2022-11-26T02:36:17.201Z,58.00
2022-11-26T02:38:44.428Z,45.63
2022-11-26T02:41:10.880Z,53.37
2022-11-26T02:43:38.596Z,55.07
2022-11-26T02:46:18.228Z,46.83
2022-11-26T02:48:47.950Z,69.00
2022-11-26T02:51:23.296Z,47.40
2022-11-26T02:53:51.272Z,46.70
2022-11-26T02:56:23.889Z,50.53
2022-11-26T02:58:51.412Z,51.27
2022-11-26T03:01:29.708Z,45.17
2022-11-26T03:03:59.383Z,49.23
2022-11-26T03:06:28.022Z,48.43
2022-11-26T03:08:55.039Z,43.43
2022-11-26T03:11:22.110Z,52.10
2022-11-26T03:13:49.480Z,47.17
2022-11-26T03:16:16.751Z,57.27
2022-11-26T03:18:43.348Z,44.67
2022-11-26T03:21:10.059Z,52.23
2022-11-26T03:23:37.288Z,46.47
2022-11-26T03:26:03.900Z,54.20
2022-11-26T03:28:30.484Z,48.47
2022-11-26T03:30:57.140Z,43.87
2022-11-26T03:33:23.805Z,48.93
2022-11-26T03:35:50.268Z,48.40
2022-11-26T03:38:17.332Z,42.77
2022-11-26T03:40:44.020Z,45.33
2022-11-26T03:43:10.574Z,44.33
2022-11-26T03:45:37.227Z,46.60
2022-11-26T03:48:04.080Z,43.03
2022-11-26T03:50:30.571Z,51.40
2022-11-26T03:52:57.155Z,47.20
2022-11-26T03:55:23.587Z,41.97
2022-11-26T03:57:50.236Z,43.70
2022-11-26T04:00:17.698Z,50.67
2022-11-26T04:02:44.154Z,43.17
2022-11-26T04:05:10.848Z,40.47
2022-11-26T04:07:37.544Z,40.23
2022-11-26T04:10:04.950Z,40.70
2022-11-26T04:12:31.458Z,41.10
2022-11-26T04:14:58.027Z,43.37
2022-11-26T04:17:24.495Z,42.03
2022-11-26T04:19:52.101Z,40.87
2022-11-26T04:22:18.696Z,40.30
2022-11-26T04:24:45.189Z,44.17
2022-11-26T04:27:11.586Z,42.97
2022-11-26T04:29:38.256Z,44.00
2022-11-26T04:32:05.118Z,42.17
2022-11-26T04:34:31.865Z,40.93
2022-11-26T04:36:58.418Z,37.87
2022-11-26T04:39:24.852Z,38.43
2022-11-26T04:41:51.532Z,38.90
2022-11-26T04:44:18.305Z,39.17
2022-11-26T04:46:44.786Z,41.97
2022-11-26T04:49:11.282Z,37.97
2022-11-26T04:51:38.232Z,41.67
2022-11-26T04:54:08.682Z,38.93
2022-11-26T04:56:39.321Z,38.47
2022-11-26T04:59:05.872Z,35.77
2022-11-26T05:01:32.457Z,35.53
2022-11-26T05:03:59.131Z,34.93
2022-11-26T05:06:25.594Z,33.47
2022-11-26T05:08:52.033Z,37.33
2022-11-26T05:11:18.826Z,37.50
2022-11-26T05:13:45.305Z,38.17
2022-11-26T05:16:11.943Z,37.13
2022-11-26T05:18:38.726Z,37.53
2022-11-26T05:21:06.259Z,37.07
2022-11-26T05:23:32.758Z,36.83
2022-11-26T05:25:59.521Z,35.47
2022-11-26T05:28:25.982Z,38.27
2022-11-26T05:30:59.936Z,37.10
2022-11-26T05:33:27.143Z,38.20
2022-11-26T05:35:53.668Z,39.83
2022-11-26T05:38:20.109Z,39.00
2022-11-26T05:40:46.765Z,34.57
2022-11-26T05:43:13.202Z,32.87
2022-11-26T05:45:39.673Z,32.60
2022-11-26T05:48:06.364Z,31.90
2022-11-26T05:50:33.722Z,31.27
2022-11-26T05:53:00.168Z,32.73
2022-11-26T05:55:26.783Z,31.30
2022-11-26T05:57:53.247Z,30.37
2022-11-26T06:00:19.909Z,31.97
2022-11-26T06:02:46.718Z,29.33
2022-11-26T06:05:13.394Z,32.33
2022-11-26T06:07:44.619Z,29.53
2022-11-26T06:10:12.766Z,31.33
2022-11-26T06:12:39.242Z,30.10
2022-11-26T06:15:06.339Z,29.47
2022-11-26T06:17:32.840Z,29.87
2022-11-26T06:19:59.795Z,31.97
2022-11-26T06:22:26.215Z,28.17
2022-11-26T06:24:52.886Z,28.47
2022-11-26T06:27:19.356Z,29.80
2022-11-26T06:29:45.781Z,29.10
2022-11-26T06:32:12.401Z,30.53
2022-11-26T06:34:39.111Z,29.50
2022-11-26T06:37:06.228Z,28.47
2022-11-26T06:39:32.853Z,27.87
2022-11-26T06:41:59.313Z,27.77
2022-11-26T06:44:25.809Z,26.87
2022-11-26T06:46:52.384Z,27.83
2022-11-26T06:49:18.823Z,26.83
2022-11-26T06:51:45.261Z,26.57
2022-11-26T06:54:11.954Z,26.73
2022-11-26T06:56:39.425Z,25.93
2022-11-26T06:59:08.727Z,26.67
2022-11-26T07:01:35.866Z,28.00
2022-11-26T07:04:02.588Z,30.27
2022-11-26T07:06:31.121Z,28.83
2022-11-26T07:08:59.316Z,28.83
2022-11-26T07:11:28.871Z,27.20
2022-11-26T07:13:55.408Z,28.33
2022-11-26T07:16:22.634Z,27.03
2022-11-26T07:18:50.624Z,27.60
2022-11-26T07:21:17.814Z,25.53
2022-11-26T07:23:44.546Z,28.53
2022-11-26T07:26:12.539Z,26.97
2022-11-26T07:28:40.776Z,26.37
2022-11-26T07:31:16.479Z,25.47
2022-11-26T07:33:44.726Z,26.53
2022-11-26T07:36:16.983Z,25.30
2022-11-26T07:38:43.481Z,26.07
2022-11-26T07:41:13.565Z,26.63
2022-11-26T07:43:41.913Z,25.97
2022-11-26T07:46:10.991Z,25.53
2022-11-26T07:48:39.925Z,27.10
2022-11-26T07:51:08.026Z,25.57
2022-11-26T07:53:35.945Z,25.70
2022-11-26T07:56:06.333Z,26.83
2022-11-26T07:58:33.668Z,25.40
2022-11-26T08:01:32.473Z,26.33
2022-11-26T08:04:00.432Z,25.40
2022-11-26T08:06:28.947Z,25.63
2022-11-26T08:08:55.508Z,25.50
2022-11-26T08:11:24.853Z,25.57
2022-11-26T08:13:56.233Z,26.20
2022-11-26T08:16:22.914Z,24.57
2022-11-26T08:19:09.291Z,26.00
2022-11-26T08:21:38.522Z,28.37
2022-11-26T08:24:08.695Z,25.63
2022-11-26T08:26:39.828Z,24.03
2022-11-26T08:29:18.333Z,25.80
2022-11-26T08:31:46.625Z,26.23
2022-11-26T08:34:27.454Z,24.63
2022-11-26T08:36:58.488Z,24.27
2022-11-26T08:39:25.316Z,23.83
2022-11-26T08:41:52.798Z,23.97
2022-11-26T08:44:19.770Z,21.97
2022-11-26T08:46:46.256Z,23.63
2022-11-26T08:49:13.610Z,23.57
2022-11-26T08:51:40.706Z,23.70
2022-11-26T08:54:07.477Z,24.20
2022-11-26T08:56:34.711Z,23.50
2022-11-26T08:59:01.407Z,23.43
2022-11-26T09:01:29.773Z,22.57
2022-11-26T09:03:58.832Z,23.43
2022-11-26T09:06:27.585Z,24.30
2022-11-26T09:09:12.622Z,21.00
2022-11-26T09:11:49.389Z,24.23
2022-11-26T09:14:18.834Z,21.50
2022-11-26T09:16:45.493Z,24.33
2022-11-26T09:19:13.727Z,24.47
2022-11-26T09:21:40.280Z,23.47
2022-11-26T09:24:07.057Z,22.47
2022-11-26T09:26:35.055Z,22.53
2022-11-26T09:29:01.820Z,23.80
2022-11-26T09:31:28.540Z,25.20
2022-11-26T09:33:56.900Z,21.93
2022-11-26T09:36:23.720Z,23.17
2022-11-26T09:38:54.019Z,22.53
2022-11-26T09:41:38.827Z,23.20
2022-11-26T09:44:22.475Z,23.83
2022-11-26T09:47:22.619Z,23.27
2022-11-26T09:50:13.322Z,23.20
2022-11-26T09:53:04.643Z,22.77
2022-11-26T09:55:33.949Z,22.43
2022-11-26T09:58:38.898Z,22.87
2022-11-26T10:01:06.753Z,21.63
2022-11-26T10:03:36.094Z,20.83
2022-11-26T10:06:13.717Z,21.60
2022-11-26T10:09:08.059Z,22.27
2022-11-26T10:12:10.937Z,21.03
2022-11-26T10:15:25.516Z,20.57
2022-11-26T10:17:54.770Z,20.30
2022-11-26T10:20:52.217Z,21.27
2022-11-26T10:23:32.707Z,20.90
2022-11-26T10:26:10.370Z,20.87
2022-11-26T10:28:51.248Z,21.20
2022-11-26T10:31:24.871Z,23.17
2022-11-26T10:33:55.900Z,21.30
2022-11-26T10:36:25.545Z,20.70
2022-11-26T10:38:53.290Z,20.77
2022-11-26T10:41:20.790Z,21.50
2022-11-26T10:43:47.451Z,21.20
2022-11-26T10:46:37.629Z,21.57
2022-11-26T10:49:23.570Z,22.87
2022-11-26T10:51:51.488Z,21.97
2022-11-26T10:54:24.726Z,21.27
2022-11-26T10:56:55.583Z,20.37
2022-11-26T10:59:28.961Z,21.27
2022-11-26T11:02:01.958Z,21.47
2022-11-26T11:04:32.593Z,22.67
2022-11-26T11:06:59.085Z,22.87
2022-11-26T11:09:29.868Z,21.33
2022-11-26T11:12:25.677Z,22.10
2022-11-26T11:14:52.326Z,20.73
2022-11-26T11:17:25.542Z,22.60
2022-11-26T11:19:52.179Z,21.90
2022-11-26T11:22:22.125Z,22.73
2022-11-26T11:24:49.129Z,21.77
2022-11-26T11:27:25.190Z,21.43
2022-11-26T11:29:52.375Z,21.63
2022-11-26T11:32:48.359Z,22.60
2022-11-26T11:35:17.812Z,23.83
2022-11-26T11:37:49.600Z,24.80
2022-11-26T11:40:20.186Z,23.80
2022-11-26T11:42:51.814Z,23.37
2022-11-26T11:45:23.445Z,22.33
2022-11-26T11:47:53.297Z,22.80
2022-11-26T11:50:30.366Z,22.30
2022-11-26T11:53:07.875Z,22.37
2022-11-26T11:55:49.362Z,21.77
2022-11-26T11:58:50.573Z,23.40
2022-11-26T12:01:33.829Z,22.50
2022-11-26T12:04:25.160Z,23.43
2022-11-26T12:06:58.924Z,22.80
2022-11-26T12:09:35.053Z,22.53
2022-11-26T12:12:21.429Z,24.93
2022-11-26T12:14:52.529Z,23.40
2022-11-26T12:17:45.928Z,24.20
2022-11-26T12:20:15.262Z,23.67
2022-11-26T12:23:16.016Z,23.97
2022-11-26T12:25:47.855Z,24.77
2022-11-26T12:28:18.291Z,23.20
2022-11-26T12:30:51.850Z,28.53
2022-11-26T12:33:25.100Z,23.93
2022-11-26T12:35:56.915Z,24.13
2022-11-26T12:38:30.254Z,24.97
2022-11-26T12:41:05.044Z,25.70
2022-11-26T12:43:52.644Z,25.07
2022-11-26T12:46:36.044Z,25.73
2022-11-26T12:49:27.047Z,22.90
2022-11-26T12:52:30.774Z,24.50
2022-11-26T12:55:23.554Z,23.47
2022-11-26T12:58:01.564Z,22.37
2022-11-26T13:00:36.371Z,22.40
2022-11-26T13:03:05.487Z,21.90
2022-11-26T13:05:51.818Z,22.70
2022-11-26T13:08:33.968Z,24.30
2022-11-26T13:11:15.501Z,23.50
2022-11-26T13:14:02.223Z,23.20
2022-11-26T13:16:43.766Z,23.20
2022-11-26T13:19:19.006Z,23.97
2022-11-26T13:22:23.151Z,25.60
2022-11-26T13:25:25.554Z,24.27
2022-11-26T13:28:21.986Z,24.20
2022-11-26T13:31:15.592Z,23.50
2022-11-26T13:34:03.487Z,23.90
2022-11-26T13:36:54.494Z,23.17
2022-11-26T13:39:30.028Z,24.00
2022-11-26T13:42:38.346Z,25.50
2022-11-26T13:45:17.768Z,23.20
2022-11-26T13:47:51.804Z,23.47
2022-11-26T13:50:26.429Z,23.57
2022-11-26T13:53:25.040Z,23.90
2022-11-26T13:55:58.202Z,23.03
2022-11-26T13:58:37.949Z,22.33
2022-11-26T14:01:33.045Z,22.10
2022-11-26T14:04:00.505Z,22.97
2022-11-26T14:06:28.222Z,23.37
2022-11-26T14:08:55.510Z,24.37
2022-11-26T14:11:54.458Z,22.07
2022-11-26T14:14:26.745Z,23.57
2022-11-26T14:17:02.532Z,25.37
2022-11-26T14:19:41.266Z,24.47
2022-11-26T14:22:20.290Z,25.13
2022-11-26T14:24:50.265Z,23.73
2022-11-26T14:27:18.743Z,22.97
2022-11-26T14:29:46.863Z,23.77
2022-11-26T14:32:15.504Z,24.30
2022-11-26T14:34:46.133Z,25.90
2022-11-26T14:37:18.373Z,23.97
2022-11-26T14:39:45.240Z,25.40
2022-11-26T14:42:16.353Z,25.50
2022-11-26T14:44:43.390Z,25.37
2022-11-26T14:47:20.827Z,26.07
2022-11-26T14:49:54.346Z,24.10
2022-11-26T14:52:23.987Z,24.73
2022-11-26T14:54:52.826Z,24.60
2022-11-26T14:57:40.713Z,23.73
2022-11-26T15:00:23.043Z,25.40
2022-11-26T15:02:51.422Z,24.30
2022-11-26T15:05:32.259Z,26.27
2022-11-26T15:08:05.017Z,25.87
2022-11-26T15:11:10.727Z,26.60
2022-11-26T15:13:48.795Z,24.23
2022-11-26T15:16:42.268Z,26.00
2022-11-26T15:19:14.851Z,23.53
2022-11-26T15:21:41.429Z,26.70
2022-11-26T15:24:09.062Z,25.17
2022-11-26T15:26:36.660Z,25.40
2022-11-26T15:29:26.669Z,26.40
2022-11-26T15:31:53.296Z,25.57
2022-11-26T15:34:19.841Z,25.77
2022-11-26T15:36:46.321Z,25.27
2022-11-26T15:39:25.494Z,25.97
2022-11-26T15:41:52.820Z,25.50
2022-11-26T15:44:22.502Z,25.13
2022-11-26T15:46:50.986Z,25.13
2022-11-26T15:49:22.991Z,25.17
2022-11-26T15:52:03.919Z,26.20
2022-11-26T15:54:49.505Z,26.43
2022-11-26T15:57:26.193Z,24.93
2022-11-26T15:59:58.671Z,24.83
2022-11-26T16:02:27.004Z,25.40
2022-11-26T16:04:55.479Z,24.57
2022-11-26T16:07:23.079Z,25.47
2022-11-26T16:09:51.337Z,25.20
2022-11-26T16:13:05.730Z,23.57
2022-11-26T16:15:32.308Z,24.23
2022-11-26T16:17:58.886Z,23.90
2022-11-26T16:20:28.366Z,23.00
2022-11-26T16:22:58.012Z,24.70
2022-11-26T16:25:31.475Z,23.07
2022-11-26T16:28:14.410Z,23.93
2022-11-26T16:30:43.731Z,23.77
2022-11-26T16:33:10.514Z,24.03
2022-11-26T16:35:46.222Z,22.57
2022-11-26T16:38:21.575Z,23.97
2022-11-26T16:40:48.514Z,23.77
2022-11-26T16:43:15.068Z,25.97
2022-11-26T16:45:42.004Z,23.47
2022-11-26T16:48:22.613Z,23.07
2022-11-26T16:50:49.385Z,22.97
2022-11-26T16:53:15.909Z,23.20
2022-11-26T16:55:42.398Z,23.37
2022-11-26T16:58:25.227Z,22.00
2022-11-26T17:00:51.691Z,22.33
2022-11-26T17:03:18.612Z,20.03
2022-11-26T17:05:45.298Z,22.07
2022-11-26T17:08:12.218Z,20.93
2022-11-26T17:10:39.037Z,21.33
2022-11-26T17:13:05.595Z,21.83
2022-11-26T17:15:32.112Z,21.07
2022-11-26T17:18:04.172Z,22.17
2022-11-26T17:20:31.129Z,21.67
2022-11-26T17:22:57.576Z,21.90
2022-11-26T17:25:24.158Z,21.63
2022-11-26T17:27:50.721Z,22.10
2022-11-26T17:30:22.391Z,21.60
2022-11-26T17:32:49.337Z,22.43
2022-11-26T17:35:16.082Z,21.37
2022-11-26T17:37:43.329Z,20.83
2022-11-26T17:40:19.066Z,21.03
2022-11-26T17:42:45.750Z,21.03
2022-11-26T17:45:12.673Z,22.30
2022-11-26T17:47:39.693Z,22.30
2022-11-26T17:50:21.942Z,20.77
2022-11-26T17:52:49.839Z,21.23
2022-11-26T17:55:17.000Z,20.33
2022-11-26T17:57:43.717Z,21.20
2022-11-26T18:00:20.140Z,22.47
2022-11-26T18:02:46.625Z,22.23
2022-11-26T18:05:13.444Z,21.67
2022-11-26T18:07:40.310Z,21.53
2022-11-26T18:10:10.195Z,20.67
2022-11-26T18:12:36.763Z,21.17
2022-11-26T18:15:04.488Z,20.80
2022-11-26T18:17:31.185Z,20.70
2022-11-26T18:19:57.764Z,21.10
2022-11-26T18:22:25.895Z,23.00
2022-11-26T18:24:57.166Z,22.47
2022-11-26T18:27:26.755Z,23.00
2022-11-26T18:29:53.521Z,21.73
2022-11-26T18:32:20.243Z,22.83
2022-11-26T18:34:49.386Z,23.73
2022-11-26T18:37:15.798Z,22.90
2022-11-26T18:39:42.359Z,26.50
2022-11-26T18:42:36.060Z,25.07
2022-11-26T18:44:55.329Z,23.93
2022-11-26T18:47:21.940Z,24.50
2022-11-26T18:49:48.624Z,23.00
2022-11-26T18:52:15.407Z,24.13
2022-11-26T18:54:42.311Z,26.20
2022-11-26T18:57:08.743Z,23.70
2022-11-26T18:59:35.472Z,25.47
2022-11-26T19:02:02.159Z,26.10
2022-11-26T19:04:28.756Z,25.83
2022-11-26T19:06:55.265Z,27.30
2022-11-26T19:09:21.978Z,28.40
2022-11-26T19:11:48.819Z,27.00
2022-11-26T19:14:15.840Z,34.40
2022-11-26T19:16:43.300Z,29.60
2022-11-26T19:19:10.149Z,28.53
2022-11-26T19:21:37.980Z,28.63
2022-11-26T19:24:07.239Z,28.40
2022-11-26T19:26:37.426Z,27.30
2022-11-26T19:29:05.231Z,26.60
2022-11-26T19:31:36.171Z,26.63
2022-11-26T19:34:08.906Z,27.80
2022-11-26T19:36:36.569Z,28.60
2022-11-26T19:39:04.375Z,28.20
2022-11-26T19:41:31.035Z,28.77
2022-11-26T19:44:00.483Z,28.47
2022-11-26T19:46:27.308Z,28.93
2022-11-26T19:48:54.195Z,27.53
2022-11-26T19:51:21.879Z,28.90
2022-11-26T19:53:52.508Z,28.20
2022-11-26T19:56:27.555Z,25.13
2022-11-26T19:58:54.700Z,25.63
2022-11-26T20:01:22.027Z,25.70
2022-11-26T20:03:49.294Z,27.37
2022-11-26T20:06:21.337Z,26.73
2022-11-26T20:08:48.332Z,27.03
2022-11-26T20:11:15.875Z,28.00
2022-11-26T20:13:46.542Z,29.97
2022-11-26T20:16:24.471Z,28.83
2022-11-26T20:18:51.359Z,28.47
2022-11-26T20:21:22.595Z,30.73
2022-11-26T20:23:50.980Z,30.40
2022-11-26T20:26:21.963Z,30.37
2022-11-26T20:28:49.460Z,29.17
2022-11-26T20:31:20.691Z,31.93
2022-11-26T20:33:52.810Z,31.10
2022-11-26T20:36:23.280Z,30.03
2022-11-26T20:38:54.363Z,30.03
2022-11-26T20:41:20.943Z,30.07
2022-11-26T20:43:47.859Z,31.40
2022-11-26T20:46:14.648Z,31.70
2022-11-26T20:48:42.895Z,29.13
2022-11-26T20:51:11.844Z,29.10
2022-11-26T20:53:38.881Z,31.30
2022-11-26T20:56:07.497Z,28.70
2022-11-26T20:58:35.609Z,30.47
2022-11-26T21:01:02.387Z,29.10
2022-11-26T21:03:29.410Z,30.73
2022-11-26T21:05:56.039Z,29.40
2022-11-26T21:08:23.000Z,30.80
2022-11-26T21:10:50.135Z,28.83
2022-11-26T21:13:18.241Z,29.93
2022-11-26T21:15:47.403Z,31.30
2022-11-26T21:18:14.184Z,29.73
2022-11-26T21:20:41.932Z,29.63
2022-11-26T21:23:10.087Z,30.97
2022-11-26T21:25:38.403Z,29.60
2022-11-26T21:28:06.099Z,30.50
2022-11-26T21:30:33.985Z,30.57
2022-11-26T21:33:07.508Z,29.97
2022-11-26T21:35:36.012Z,30.80
2022-11-26T21:38:02.674Z,28.60
2022-11-26T21:40:29.415Z,29.37
2022-11-26T21:42:56.219Z,31.53
2022-11-26T21:45:22.801Z,29.77
2022-11-26T21:47:51.166Z,29.50
2022-11-26T21:50:18.981Z,30.23
2022-11-26T21:52:45.649Z,30.43
2022-11-26T21:55:12.396Z,31.43
2022-11-26T21:57:39.288Z,30.27
2022-11-26T22:00:06.756Z,30.13
2022-11-26T22:02:33.715Z,29.63
2022-11-26T22:05:00.571Z,29.10
2022-11-26T22:07:27.522Z,29.43
2022-11-26T22:09:54.280Z,31.37
2022-11-26T22:12:20.930Z,28.83
2022-11-26T22:14:47.459Z,28.33
2022-11-26T22:17:13.997Z,31.30
2022-11-26T22:19:41.034Z,29.73
2022-11-26T22:22:08.155Z,28.60
2022-11-26T22:24:35.710Z,29.40
2022-11-26T22:27:02.359Z,29.83
2022-11-26T22:29:28.849Z,30.40
2022-11-26T22:31:55.427Z,30.30
2022-11-26T22:34:24.629Z,30.00
2022-11-26T22:36:51.310Z,28.93
2022-11-26T22:39:18.758Z,30.67
2022-11-26T22:41:46.710Z,29.47
2022-11-26T22:44:14.068Z,29.83
2022-11-26T22:46:40.565Z,30.80
2022-11-26T22:49:07.305Z,29.13
2022-11-26T22:51:35.620Z,29.37
2022-11-26T22:54:05.271Z,31.13
2022-11-26T22:56:31.879Z,30.57
2022-11-26T22:58:58.635Z,29.43
2022-11-26T23:01:27.825Z,28.87
2022-11-26T23:03:56.169Z,29.70
2022-11-26T23:06:25.307Z,28.93
2022-11-26T23:08:52.457Z,30.37
2022-11-26T23:11:22.034Z,30.47
2022-11-26T23:13:50.090Z,29.50
2022-11-26T23:16:18.290Z,29.30
2022-11-26T23:18:45.248Z,29.97
2022-11-26T23:21:18.021Z,29.83
2022-11-26T23:23:44.956Z,29.97
2022-11-26T23:26:14.893Z,29.83
2022-11-26T23:28:41.582Z,28.27
2022-11-26T23:31:13.092Z,29.10
2022-11-26T23:33:39.845Z,27.50
2022-11-26T23:36:06.652Z,28.43
2022-11-26T23:38:33.380Z,29.13
2022-11-26T23:41:02.620Z,28.33
2022-11-26T23:43:30.552Z,29.57
2022-11-26T23:46:01.508Z,28.77
2022-11-26T23:48:28.778Z,29.67
2022-11-26T23:50:55.288Z,29.07
2022-11-26T23:53:22.140Z,31.67
2022-11-26T23:55:49.193Z,30.60
2022-11-26T23:58:16.683Z,31.13
